createdAt,value
2022-11-29T00:00:27.317Z,3.40
2022-11-29T00:02:58.552Z,3.50
2022-11-29T00:08:21.580Z,3.40
2022-11-29T00:10:52.971Z,3.40
2022-11-29T00:13:31.434Z,3.30
2022-11-29T00:16:10.797Z,3.40
2022-11-29T00:21:22.531Z,3.40
2022-11-29T00:23:53.726Z,3.40
2022-11-29T00:26:23.586Z,3.30
2022-11-29T00:28:53.592Z,3.30
2022-11-29T00:31:31.216Z,3.40
2022-11-29T00:34:02.308Z,3.40
2022-11-29T00:36:34.694Z,3.30
2022-11-29T00:39:03.242Z,3.20
2022-11-29T00:41:35.154Z,3.20
2022-11-29T00:44:09.191Z,3.30
2022-11-29T00:49:27.582Z,3.30
2022-11-29T00:51:57.592Z,3.30
2022-11-29T00:54:28.285Z,3.20
2022-11-29T00:57:05.674Z,3.30
2022-11-29T01:02:18.298Z,3.30
2022-11-29T01:04:52.472Z,3.30
2022-11-29T01:07:24.793Z,3.30
2022-11-29T01:09:57.527Z,3.30
2022-11-29T01:12:38.039Z,3.30
2022-11-29T01:15:10.086Z,3.30
2022-11-29T01:17:48.349Z,3.40
2022-11-29T01:20:16.934Z,3.30
2022-11-29T01:25:31.943Z,3.30
2022-11-29T01:28:02.051Z,3.20
2022-11-29T01:30:42.791Z,3.30
2022-11-29T01:33:14.094Z,3.20
2022-11-29T01:35:56.206Z,3.20
2022-11-29T01:38:30.043Z,3.20
2022-11-29T01:41:10.251Z,3.20
2022-11-29T01:44:14.868Z,3.20
2022-11-29T01:46:50.179Z,3.30
2022-11-29T01:49:36.609Z,3.30
2022-11-29T01:52:25.055Z,3.30
2022-11-29T01:55:03.024Z,3.30
2022-11-29T01:57:41.607Z,3.20
2022-11-29T02:00:18.464Z,3.10
2022-11-29T02:03:07.815Z,3.20
2022-11-29T02:05:46.232Z,3.20
2022-11-29T02:08:44.344Z,3.20
2022-11-29T02:12:01.057Z,3.20
2022-11-29T02:14:50.663Z,3.20
2022-11-29T02:18:05.732Z,3.20
2022-11-29T02:21:09.826Z,3.20
2022-11-29T02:24:18.132Z,3.20
2022-11-29T02:30:16.402Z,3.20
2022-11-29T02:33:38.543Z,3.20
2022-11-29T02:36:34.186Z,3.10
2022-11-29T02:39:42.618Z,3.10
2022-11-29T02:45:55.579Z,3.10
2022-11-29T02:48:48.180Z,3.10
2022-11-29T02:51:48.101Z,3.10
2022-11-29T02:55:07.503Z,3.10
2022-11-29T02:57:59.647Z,3.00
2022-11-29T03:00:35.930Z,3.10
2022-11-29T03:03:17.331Z,3.00
2022-11-29T03:06:07.366Z,3.00
2022-11-29T03:08:49.128Z,3.00
2022-11-29T03:12:02.520Z,3.00
2022-11-29T03:15:07.382Z,3.00
2022-11-29T03:18:27.115Z,3.00
2022-11-29T03:21:34.523Z,3.00
2022-11-29T03:24:33.331Z,2.90
2022-11-29T03:27:13.999Z,2.90
2022-11-29T03:30:10.868Z,2.90
2022-11-29T03:33:22.141Z,2.90
2022-11-29T03:39:38.447Z,3.00
2022-11-29T03:42:21.969Z,2.90
2022-11-29T03:45:34.079Z,2.90
2022-11-29T03:48:30.130Z,2.90
2022-11-29T03:51:14.533Z,2.90
2022-11-29T03:54:07.863Z,2.90
2022-11-29T03:56:40.188Z,3.00
2022-11-29T03:59:18.874Z,2.80
2022-11-29T04:02:11.573Z,2.90
2022-11-29T04:05:21.443Z,2.80
2022-11-29T04:08:03.925Z,2.90
2022-11-29T04:11:19.781Z,2.80
2022-11-29T04:14:09.266Z,2.90
2022-11-29T04:17:16.069Z,3.00
2022-11-29T04:19:50.248Z,3.10
2022-11-29T04:22:56.699Z,3.10
2022-11-29T04:26:11.321Z,3.00
2022-11-29T04:29:05.879Z,3.10
2022-11-29T04:32:19.417Z,3.10
2022-11-29T04:35:22.137Z,3.10
2022-11-29T04:38:14.543Z,3.10
2022-11-29T04:41:23.356Z,3.10
2022-11-29T04:44:12.251Z,3.10
2022-11-29T04:47:06.658Z,3.10
2022-11-29T04:50:00.515Z,3.10
2022-11-29T04:52:58.318Z,3.20
2022-11-29T04:56:01.248Z,3.00
2022-11-29T04:59:02.510Z,3.00
2022-11-29T05:02:17.426Z,3.10
2022-11-29T05:05:12.202Z,3.00
2022-11-29T05:08:03.799Z,3.10
2022-11-29T05:14:20.722Z,2.90
2022-11-29T05:17:19.797Z,2.90
2022-11-29T05:20:43.178Z,3.00
2022-11-29T05:23:46.494Z,2.90
2022-11-29T05:27:12.619Z,3.00
2022-11-29T05:29:55.017Z,3.00
2022-11-29T05:33:00.684Z,3.00
2022-11-29T05:35:54.769Z,3.00
2022-11-29T05:38:56.675Z,3.00
2022-11-29T05:42:13.753Z,3.10
2022-11-29T05:45:14.245Z,3.00
2022-11-29T05:48:02.923Z,3.00
2022-11-29T05:50:57.959Z,3.00
2022-11-29T05:53:49.754Z,3.00
2022-11-29T05:57:02.150Z,3.10
2022-11-29T05:59:34.656Z,3.00
2022-11-29T06:02:29.715Z,3.10
2022-11-29T06:05:22.146Z,3.00
2022-11-29T06:11:30.320Z,3.00
2022-11-29T06:14:36.394Z,3.10
2022-11-29T06:17:47.215Z,3.10
2022-11-29T06:20:41.690Z,3.10
2022-11-29T06:23:57.949Z,3.10
2022-11-29T06:26:47.233Z,3.10
2022-11-29T06:29:54.796Z,3.10
2022-11-29T06:32:54.720Z,3.10
2022-11-29T06:36:07.024Z,3.00
2022-11-29T06:38:37.557Z,3.10
2022-11-29T06:41:14.872Z,3.10
2022-11-29T06:43:52.054Z,3.10
2022-11-29T06:46:49.681Z,3.10
2022-11-29T06:49:36.968Z,3.20
2022-11-29T06:52:35.403Z,3.10
2022-11-29T06:55:29.905Z,3.20
2022-11-29T06:58:40.184Z,3.10
2022-11-29T07:01:32.855Z,3.20
2022-11-29T07:04:45.934Z,3.20
2022-11-29T07:07:20.091Z,3.40
2022-11-29T07:09:55.980Z,3.30
2022-11-29T07:12:32.928Z,3.40
2022-11-29T07:15:15.728Z,3.40
2022-11-29T07:18:15.521Z,3.30
2022-11-29T07:21:09.309Z,3.30
2022-11-29T07:24:18.331Z,3.40
2022-11-29T07:27:09.203Z,3.40
2022-11-29T07:33:00.512Z,3.30
2022-11-29T07:36:04.807Z,3.40
2022-11-29T07:39:02.722Z,3.40
2022-11-29T07:41:58.489Z,3.40
2022-11-29T07:45:23.235Z,3.50
2022-11-29T07:47:55.433Z,3.50
2022-11-29T07:50:26.727Z,3.50
2022-11-29T07:52:58.736Z,3.50
2022-11-29T07:55:29.683Z,3.50
2022-11-29T07:58:07.417Z,3.50
2022-11-29T08:06:04.933Z,4.20
2022-11-29T08:08:37.859Z,3.80
2022-11-29T08:11:14.284Z,3.70
2022-11-29T08:13:44.135Z,3.80
2022-11-29T08:16:23.054Z,3.80
2022-11-29T08:18:54.683Z,3.70
2022-11-29T08:21:23.465Z,3.60
2022-11-29T08:23:54.302Z,3.70
2022-11-29T08:26:31.246Z,3.60
2022-11-29T08:31:56.042Z,3.80
2022-11-29T08:34:28.607Z,3.80
2022-11-29T08:37:00.064Z,3.80
2022-11-29T08:39:31.125Z,3.70
2022-11-29T08:42:01.536Z,3.70
2022-11-29T08:44:32.648Z,3.80
2022-11-29T08:47:22.921Z,3.70
2022-11-29T08:50:03.868Z,3.80
2022-11-29T08:52:57.592Z,3.80
2022-11-29T08:55:35.805Z,3.80
2022-11-29T08:58:12.569Z,3.80
2022-11-29T09:00:55.741Z,3.90
2022-11-29T09:03:47.715Z,3.80
2022-11-29T09:06:17.904Z,3.80
2022-11-29T09:08:48.836Z,3.90
2022-11-29T09:11:23.351Z,3.90
2022-11-29T09:13:53.697Z,3.80
2022-11-29T09:16:31.232Z,3.80
2022-11-29T09:19:00.651Z,3.80
2022-11-29T09:21:40.918Z,3.80
2022-11-29T09:24:11.134Z,3.80
2022-11-29T09:26:42.380Z,3.80
2022-11-29T09:29:13.430Z,3.70
2022-11-29T09:31:45.357Z,3.70
2022-11-29T09:34:19.958Z,3.70
2022-11-29T09:36:48.952Z,3.80
2022-11-29T09:39:29.993Z,3.80
2022-11-29T09:42:09.748Z,3.90
2022-11-29T09:45:37.013Z,3.90
2022-11-29T09:48:26.446Z,3.90
2022-11-29T09:54:44.749Z,3.80
2022-11-29T09:57:27.154Z,3.80
2022-11-29T10:00:03.806Z,3.80
2022-11-29T10:03:03.559Z,3.90
2022-11-29T10:05:57.049Z,3.90
2022-11-29T10:09:03.959Z,4.00
2022-11-29T10:12:19.523Z,4.00
2022-11-29T10:15:01.888Z,4.10
2022-11-29T10:17:34.594Z,4.10
2022-11-29T10:20:23.395Z,4.10
2022-11-29T10:23:19.835Z,4.20
2022-11-29T10:25:52.326Z,4.30
2022-11-29T10:28:36.943Z,4.30
2022-11-29T10:31:29.195Z,4.30
2022-11-29T10:34:06.419Z,4.30
2022-11-29T10:37:03.423Z,4.40
2022-11-29T10:39:57.507Z,4.40
2022-11-29T10:42:50.004Z,4.30
2022-11-29T10:45:32.410Z,4.30
2022-11-29T10:48:14.219Z,4.40
2022-11-29T10:50:51.223Z,4.40
2022-11-29T10:53:36.030Z,4.30
2022-11-29T10:56:32.786Z,4.40
2022-11-29T10:59:09.324Z,4.40
2022-11-29T11:01:44.171Z,4.50
2022-11-29T11:04:45.050Z,4.40
2022-11-29T11:07:38.019Z,4.40
2022-11-29T11:10:31.167Z,4.20
2022-11-29T11:13:22.932Z,4.30
2022-11-29T11:16:37.608Z,4.60
2022-11-29T11:19:31.642Z,4.30
2022-11-29T11:22:33.800Z,4.30
2022-11-29T11:25:29.845Z,4.40
2022-11-29T11:28:28.440Z,4.40
2022-11-29T11:31:04.994Z,4.40
2022-11-29T11:33:48.799Z,4.40
2022-11-29T11:36:47.299Z,4.40
2022-11-29T11:39:34.975Z,4.50
2022-11-29T11:42:27.304Z,4.50
2022-11-29T11:44:57.963Z,4.50
2022-11-29T11:47:29.689Z,4.60
2022-11-29T11:50:27.486Z,4.60
2022-11-29T11:53:22.497Z,4.50
2022-11-29T11:56:13.171Z,4.60
2022-11-29T11:58:52.431Z,4.60
2022-11-29T12:01:39.838Z,4.60
2022-11-29T12:04:29.281Z,4.60
2022-11-29T12:07:06.256Z,4.70
2022-11-29T12:09:53.701Z,4.80
2022-11-29T12:12:46.300Z,4.70
2022-11-29T12:15:32.996Z,5.00
2022-11-29T12:18:33.590Z,4.90
2022-11-29T12:21:33.551Z,5.00
2022-11-29T12:24:41.305Z,5.00
2022-11-29T12:27:19.154Z,5.00
2022-11-29T12:29:55.246Z,5.00
2022-11-29T12:33:01.655Z,5.00
2022-11-29T12:35:50.726Z,5.00
2022-11-29T12:38:51.869Z,5.00
2022-11-29T12:41:53.760Z,5.10
2022-11-29T12:44:47.837Z,5.20
2022-11-29T12:47:39.662Z,5.30
2022-11-29T12:50:26.820Z,5.20
2022-11-29T12:53:31.424Z,5.20
2022-11-29T12:56:47.699Z,5.20
2022-11-29T12:59:40.337Z,5.20
2022-11-29T13:02:44.826Z,5.20
2022-11-29T13:05:47.666Z,5.30
2022-11-29T13:08:38.977Z,5.30
2022-11-29T13:11:43.641Z,5.50
2022-11-29T13:14:50.400Z,5.70
2022-11-29T13:17:50.583Z,5.80
2022-11-29T13:21:21.117Z,5.60
2022-11-29T13:24:09.762Z,5.60
2022-11-29T13:26:41.065Z,5.70
2022-11-29T13:29:19.788Z,5.60
2022-11-29T13:31:54.621Z,5.40
2022-11-29T13:34:49.631Z,5.40
2022-11-29T13:37:32.982Z,5.30
2022-11-29T13:40:45.493Z,5.30
2022-11-29T13:46:47.714Z,5.20
2022-11-29T13:50:05.975Z,5.20
2022-11-29T13:53:05.144Z,5.30
2022-11-29T13:55:34.302Z,5.20
2022-11-29T13:58:32.995Z,5.30
2022-11-29T14:01:17.498Z,5.20
2022-11-29T14:04:15.468Z,5.20
2022-11-29T14:06:48.447Z,5.20
2022-11-29T14:09:38.177Z,5.10
2022-11-29T14:12:38.409Z,5.20
2022-11-29T14:15:25.617Z,5.20
2022-11-29T14:18:22.178Z,5.10
2022-11-29T14:21:02.057Z,5.10
2022-11-29T14:23:46.833Z,5.10
2022-11-29T14:26:39.924Z,4.90
2022-11-29T14:29:48.755Z,4.90
2022-11-29T14:32:39.287Z,4.90
2022-11-29T14:35:24.317Z,4.90
2022-11-29T14:38:51.217Z,4.90
2022-11-29T14:41:37.607Z,4.80
2022-11-29T14:44:16.877Z,4.80
2022-11-29T14:47:13.421Z,4.80
2022-11-29T14:49:45.446Z,4.80
2022-11-29T14:52:23.985Z,4.80
2022-11-29T14:55:13.309Z,4.80
2022-11-29T14:58:03.612Z,4.80
2022-11-29T15:00:56.833Z,4.70
2022-11-29T15:03:49.035Z,4.60
2022-11-29T15:06:44.082Z,4.70
2022-11-29T15:09:22.420Z,4.60
2022-11-29T15:11:52.855Z,4.60
2022-11-29T15:15:10.665Z,4.70
2022-11-29T15:17:58.258Z,4.60
2022-11-29T15:21:03.942Z,4.60
2022-11-29T15:23:46.171Z,4.70
2022-11-29T15:26:25.430Z,4.60
2022-11-29T15:29:12.514Z,4.60
2022-11-29T15:31:50.987Z,4.50
2022-11-29T15:34:39.035Z,4.50
2022-11-29T15:37:23.102Z,4.50
2022-11-29T15:43:34.628Z,4.30
2022-11-29T15:46:35.901Z,4.40
2022-11-29T15:49:40.856Z,4.30
2022-11-29T15:52:26.401Z,4.30
2022-11-29T15:55:03.788Z,4.30
2022-11-29T15:57:55.610Z,4.40
2022-11-29T16:00:28.774Z,4.60
2022-11-29T16:03:12.509Z,4.30
2022-11-29T16:05:54.333Z,4.30
2022-11-29T16:08:37.226Z,4.20
2022-11-29T16:11:16.163Z,4.30
2022-11-29T16:14:36.304Z,4.20
2022-11-29T16:17:13.911Z,4.20
2022-11-29T16:19:47.465Z,4.10
2022-11-29T16:22:34.778Z,4.20
2022-11-29T16:25:14.938Z,4.20
2022-11-29T16:27:56.624Z,4.10
2022-11-29T16:30:31.923Z,4.10
2022-11-29T16:33:15.660Z,4.00
2022-11-29T16:35:48.088Z,4.10
2022-11-29T16:38:27.048Z,4.00
2022-11-29T16:41:14.246Z,4.00
2022-11-29T16:43:59.543Z,3.90
2022-11-29T16:46:36.678Z,4.00
2022-11-29T16:49:38.807Z,4.00
2022-11-29T16:52:32.571Z,4.10
2022-11-29T16:55:02.556Z,3.90
2022-11-29T16:57:35.178Z,3.90
2022-11-29T17:00:36.495Z,3.90
2022-11-29T17:03:06.138Z,3.90
2022-11-29T17:05:39.012Z,3.90
2022-11-29T17:08:12.693Z,3.80
2022-11-29T17:10:40.681Z,3.80
2022-11-29T17:13:11.657Z,3.80
2022-11-29T17:15:41.411Z,3.80
2022-11-29T17:18:09.461Z,3.80
2022-11-29T17:20:37.147Z,3.70
2022-11-29T17:23:07.821Z,3.60
2022-11-29T17:25:35.948Z,3.70
2022-11-29T17:28:03.637Z,3.70
2022-11-29T17:30:34.598Z,3.80
2022-11-29T17:33:02.760Z,3.70
2022-11-29T17:35:30.558Z,3.60
2022-11-29T17:38:00.545Z,3.60
2022-11-29T17:40:30.985Z,3.60
2022-11-29T17:43:00.603Z,3.60
2022-11-29T17:45:28.484Z,3.50
2022-11-29T17:47:56.437Z,3.50
2022-11-29T17:50:26.017Z,3.50
2022-11-29T17:52:54.947Z,3.50
2022-11-29T17:55:28.251Z,3.50
2022-11-29T17:58:05.499Z,3.40
2022-11-29T18:00:33.514Z,3.40
2022-11-29T18:03:03.140Z,3.30
2022-11-29T18:05:34.760Z,3.30
2022-11-29T18:08:07.240Z,3.30
2022-11-29T18:10:40.639Z,3.20
2022-11-29T18:13:08.589Z,3.30
2022-11-29T18:15:36.301Z,3.30
2022-11-29T18:18:04.273Z,3.30
2022-11-29T18:20:33.286Z,3.20
2022-11-29T18:23:07.789Z,3.10
2022-11-29T18:25:39.239Z,3.10
2022-11-29T18:28:08.994Z,3.10
2022-11-29T18:30:37.062Z,3.10
2022-11-29T18:33:08.838Z,3.10
2022-11-29T18:35:37.262Z,3.10
2022-11-29T18:38:20.683Z,3.10
2022-11-29T18:40:53.220Z,3.10
2022-11-29T18:43:24.772Z,3.10
2022-11-29T18:45:53.026Z,3.10
2022-11-29T18:48:21.503Z,3.10
2022-11-29T18:50:51.689Z,3.00
2022-11-29T18:53:21.076Z,2.90
2022-11-29T18:56:00.794Z,2.90
2022-11-29T18:58:35.280Z,2.90
2022-11-29T19:01:18.437Z,2.80
2022-11-29T19:03:51.748Z,2.80
2022-11-29T19:06:27.402Z,2.70
2022-11-29T19:09:06.361Z,2.70
2022-11-29T19:11:36.627Z,2.80
2022-11-29T19:14:11.340Z,2.90
2022-11-29T19:16:42.687Z,2.90
2022-11-29T19:19:12.130Z,2.90
2022-11-29T19:21:42.025Z,2.90
2022-11-29T19:24:15.674Z,2.80
2022-11-29T19:26:46.060Z,2.90
2022-11-29T19:29:27.035Z,2.80
2022-11-29T19:32:04.370Z,2.80
2022-11-29T19:34:53.288Z,2.80
2022-11-29T19:37:32.360Z,2.70
2022-11-29T19:40:04.582Z,2.70
2022-11-29T19:42:36.974Z,2.70
2022-11-29T19:45:18.871Z,2.60
2022-11-29T19:47:55.164Z,2.60
2022-11-29T19:50:26.958Z,2.80
2022-11-29T19:53:00.547Z,2.70
2022-11-29T19:55:39.460Z,2.60
2022-11-29T19:58:19.853Z,2.70
2022-11-29T20:00:55.053Z,2.70
2022-11-29T20:03:32.053Z,2.70
2022-11-29T20:06:02.921Z,2.70
2022-11-29T20:08:41.551Z,2.70
2022-11-29T20:11:36.763Z,2.70
2022-11-29T20:14:08.894Z,2.70
2022-11-29T20:16:51.646Z,2.80
2022-11-29T20:19:24.223Z,2.70
2022-11-29T20:21:56.043Z,2.60
2022-11-29T20:24:45.514Z,2.70
2022-11-29T20:27:21.761Z,2.60
2022-11-29T20:29:52.032Z,2.70
2022-11-29T20:32:28.702Z,2.70
2022-11-29T20:35:03.906Z,2.60
2022-11-29T20:38:02.689Z,2.60
2022-11-29T20:41:02.501Z,2.60
2022-11-29T20:43:57.040Z,2.50
2022-11-29T20:46:32.202Z,2.50
2022-11-29T20:49:15.091Z,2.60
2022-11-29T20:52:05.857Z,2.60
2022-11-29T20:54:35.996Z,2.50
2022-11-29T20:57:07.033Z,2.50
2022-11-29T20:59:36.629Z,2.60
2022-11-29T21:02:13.531Z,2.60
2022-11-29T21:04:42.616Z,2.70
2022-11-29T21:07:15.447Z,2.70
2022-11-29T21:09:59.501Z,2.80
2022-11-29T21:12:34.313Z,2.70
2022-11-29T21:15:04.297Z,2.80
2022-11-29T21:17:37.149Z,2.90
2022-11-29T21:20:07.120Z,2.80
2022-11-29T21:23:12.718Z,2.90
2022-11-29T21:25:52.618Z,2.80
2022-11-29T21:28:39.858Z,2.80
2022-11-29T21:31:17.192Z,2.90
2022-11-29T21:33:48.510Z,2.90
2022-11-29T21:36:20.152Z,2.90
2022-11-29T21:39:05.391Z,2.90
2022-11-29T21:41:36.459Z,2.90
2022-11-29T21:44:07.056Z,2.90
2022-11-29T21:46:37.540Z,2.90
2022-11-29T21:49:07.380Z,2.90
2022-11-29T21:51:38.493Z,3.00
2022-11-29T21:54:07.398Z,3.00
2022-11-29T21:56:37.124Z,3.00
2022-11-29T21:59:09.648Z,2.90
2022-11-29T22:01:37.104Z,3.00
2022-11-29T22:04:05.790Z,3.00
2022-11-29T22:06:37.274Z,3.10
2022-11-29T22:09:07.768Z,3.10
2022-11-29T22:11:38.998Z,3.10
2022-11-29T22:14:15.216Z,3.10
2022-11-29T22:16:50.246Z,3.10
2022-11-29T22:19:30.892Z,3.00
2022-11-29T22:22:02.576Z,3.00
2022-11-29T22:24:36.253Z,3.10
2022-11-29T22:27:06.609Z,3.10
2022-11-29T22:29:36.620Z,3.40
2022-11-29T22:32:08.790Z,3.40
2022-11-29T22:34:41.126Z,3.40
2022-11-29T22:37:10.351Z,3.30
2022-11-29T22:39:43.909Z,3.30
2022-11-29T22:42:11.461Z,3.20
2022-11-29T22:44:41.142Z,3.20
2022-11-29T22:47:08.734Z,3.20
2022-11-29T22:49:37.165Z,3.20
2022-11-29T22:52:06.346Z,3.10
2022-11-29T22:54:36.666Z,3.10
2022-11-29T22:57:06.365Z,3.10
2022-11-29T22:59:35.998Z,3.10
2022-11-29T23:02:06.742Z,3.10
2022-11-29T23:07:18.059Z,3.10
2022-11-29T23:09:53.172Z,3.10
2022-11-29T23:12:31.210Z,3.20
2022-11-29T23:15:02.051Z,3.10
2022-11-29T23:17:30.468Z,3.20
2022-11-29T23:20:02.248Z,3.10
2022-11-29T23:22:39.480Z,3.20
2022-11-29T23:25:07.458Z,3.20
2022-11-29T23:27:36.619Z,3.20
2022-11-29T23:30:06.552Z,3.20
2022-11-29T23:32:35.288Z,3.20
2022-11-29T23:35:04.122Z,3.10
2022-11-29T23:37:34.433Z,3.10
2022-11-29T23:40:02.981Z,3.10
2022-11-29T23:42:33.606Z,3.10
2022-11-29T23:45:03.127Z,3.20
2022-11-29T23:47:33.770Z,3.20
2022-11-29T23:50:04.552Z,3.10
2022-11-29T23:52:36.643Z,3.10
2022-11-29T23:55:04.760Z,3.10
2022-11-29T23:57:36.550Z,3.10
